sensor_id;sensor_type;location;lat;lon;timestamp;pressure;altitude;pressure_sealevel;temperature;humidity
36378;BME280;22402;42.746;23.606;2022-10-23T00:00:38;93964.22;;;12.61;nan
36378;BME280;22402;42.746;23.606;2022-10-23T00:03:04;93976.72;;;12.58;nan
36378;BME280;22402;42.746;23.606;2022-10-23T00:05:30;93966.72;;;12.53;nan
36378;BME280;22402;42.746;23.606;2022-10-23T00:07:57;93972.75;;;12.53;nan
36378;BME280;22402;42.746;23.606;2022-10-23T00:10:25;93959.97;;;12.50;nan
36378;BME280;22402;42.746;23.606;2022-10-23T00:12:51;93960.25;;;12.47;nan
36378;BME280;22402;42.746;23.606;2022-10-23T00:15:20;93966.59;;;12.45;nan
36378;BME280;22402;42.746;23.606;2022-10-23T00:17:46;93963.28;;;12.43;nan
36378;BME280;22402;42.746;23.606;2022-10-23T00:20:12;93951.31;;;12.40;nan
36378;BME280;22402;42.746;23.606;2022-10-23T00:22:38;93947.22;;;12.38;nan
36378;BME280;22402;42.746;23.606;2022-10-23T00:25:07;93953.84;;;12.32;nan
36378;BME280;22402;42.746;23.606;2022-10-23T00:27:34;93936.78;;;12.28;nan
36378;BME280;22402;42.746;23.606;2022-10-23T00:30:00;93957.56;;;12.29;nan
36378;BME280;22402;42.746;23.606;2022-10-23T00:32:26;93960.31;;;12.28;nan
36378;BME280;22402;42.746;23.606;2022-10-23T00:34:52;93953.72;;;12.24;nan
36378;BME280;22402;42.746;23.606;2022-10-23T00:37:17;93960.88;;;12.22;nan
36378;BME280;22402;42.746;23.606;2022-10-23T00:39:42;93966.38;;;12.19;nan
36378;BME280;22402;42.746;23.606;2022-10-23T00:42:12;93971.25;;;12.14;nan
36378;BME280;22402;42.746;23.606;2022-10-23T00:47:03;93968.50;;;12.05;nan
36378;BME280;22402;42.746;23.606;2022-10-23T00:49:29;93957.06;;;12.06;nan
36378;BME280;22402;42.746;23.606;2022-10-23T00:52:00;93954.59;;;12.05;nan
36378;BME280;22402;42.746;23.606;2022-10-23T00:54:32;93954.59;;;12.05;nan
36378;BME280;22402;42.746;23.606;2022-10-23T00:57:00;93951.31;;;12.03;nan
36378;BME280;22402;42.746;23.606;2022-10-23T00:59:26;93954.03;;;12.01;nan
36378;BME280;22402;42.746;23.606;2022-10-23T01:01:52;93971.38;;;12.02;nan
36378;BME280;22402;42.746;23.606;2022-10-23T01:04:18;93974.00;;;12.02;nan
36378;BME280;22402;42.746;23.606;2022-10-23T01:07:21;93974.66;;;12.04;nan
36378;BME280;22402;42.746;23.606;2022-10-23T01:10:00;93967.66;;;12.05;nan
36378;BME280;22402;42.746;23.606;2022-10-23T01:15:22;93970.53;;;12.12;nan
36378;BME280;22402;42.746;23.606;2022-10-23T01:20:58;93970.94;;;12.17;nan
36378;BME280;22402;42.746;23.606;2022-10-23T01:23:40;93983.75;;;12.20;nan
36378;BME280;22402;42.746;23.606;2022-10-23T01:29:25;93986.72;;;12.25;nan
36378;BME280;22402;42.746;23.606;2022-10-23T01:37:13;93984.94;;;12.35;nan
36378;BME280;22402;42.746;23.606;2022-10-23T01:39:46;93993.44;;;12.37;nan
36378;BME280;22402;42.746;23.606;2022-10-23T01:42:16;93994.66;;;12.43;nan
36378;BME280;22402;42.746;23.606;2022-10-23T01:44:47;93984.66;;;12.38;nan
36378;BME280;22402;42.746;23.606;2022-10-23T01:47:16;93981.03;;;12.49;nan
36378;BME280;22402;42.746;23.606;2022-10-23T01:49:43;93983.34;;;12.52;nan
36378;BME280;22402;42.746;23.606;2022-10-23T01:52:12;93988.16;;;12.57;nan
36378;BME280;22402;42.746;23.606;2022-10-23T01:54:41;93990.22;;;12.63;nan
36378;BME280;22402;42.746;23.606;2022-10-23T01:57:10;93995.16;;;12.66;nan
36378;BME280;22402;42.746;23.606;2022-10-23T01:59:41;93993.22;;;12.68;nan
36378;BME280;22402;42.746;23.606;2022-10-23T02:02:09;93992.25;;;12.69;nan
36378;BME280;22402;42.746;23.606;2022-10-23T02:07:15;93998.16;;;12.71;nan
36378;BME280;22402;42.746;23.606;2022-10-23T02:09:40;93990.97;;;12.73;nan
36378;BME280;22402;42.746;23.606;2022-10-23T02:12:39;93982.72;;;12.77;nan
36378;BME280;22402;42.746;23.606;2022-10-23T02:15:08;93986.56;;;12.83;nan
36378;BME280;22402;42.746;23.606;2022-10-23T02:22:51;93980.31;;;12.94;nan
36378;BME280;22402;42.746;23.606;2022-10-23T02:25:32;93990.34;;;12.98;nan
36378;BME280;22402;42.746;23.606;2022-10-23T02:28:04;93997.19;;;12.99;nan
36378;BME280;22402;42.746;23.606;2022-10-23T02:30:31;94003.28;;;13.00;nan
36378;BME280;22402;42.746;23.606;2022-10-23T02:33:01;94003.13;;;13.02;nan
36378;BME280;22402;42.746;23.606;2022-10-23T02:35:27;93995.84;;;12.95;nan
36378;BME280;22402;42.746;23.606;2022-10-23T02:37:57;93991.97;;;12.99;nan
36378;BME280;22402;42.746;23.606;2022-10-23T02:40:28;93991.97;;;12.99;nan
36378;BME280;22402;42.746;23.606;2022-10-23T02:43:03;94002.44;;;12.99;nan
36378;BME280;22402;42.746;23.606;2022-10-23T02:45:45;93990.03;;;13.02;nan
36378;BME280;22402;42.746;23.606;2022-10-23T02:48:21;93988.41;;;13.00;nan
36378;BME280;22402;42.746;23.606;2022-10-23T02:53:20;93998.06;;;13.00;nan
36378;BME280;22402;42.746;23.606;2022-10-23T03:01:13;94016.38;;;13.00;nan
36378;BME280;22402;42.746;23.606;2022-10-23T03:04:01;94022.56;;;12.99;nan
36378;BME280;22402;42.746;23.606;2022-10-23T03:06:27;94022.03;;;12.95;nan
36378;BME280;22402;42.746;23.606;2022-10-23T03:08:58;94023.66;;;12.96;nan
36378;BME280;22402;42.746;23.606;2022-10-23T03:11:27;94018.72;;;12.93;nan
36378;BME280;22402;42.746;23.606;2022-10-23T03:13:52;94016.56;;;12.89;nan
36378;BME280;22402;42.746;23.606;2022-10-23T03:16:18;94016.97;;;12.84;nan
36378;BME280;22402;42.746;23.606;2022-10-23T03:18:43;94019.34;;;12.77;nan
36378;BME280;22402;42.746;23.606;2022-10-23T03:21:08;94030.91;;;12.75;nan
36378;BME280;22402;42.746;23.606;2022-10-23T03:23:34;94031.50;;;12.69;nan
36378;BME280;22402;42.746;23.606;2022-10-23T03:25:59;94043.06;;;12.66;nan
36378;BME280;22402;42.746;23.606;2022-10-23T03:28:24;94054.91;;;12.61;nan
36378;BME280;22402;42.746;23.606;2022-10-23T03:30:50;94061.41;;;12.57;nan
36378;BME280;22402;42.746;23.606;2022-10-23T03:33:16;94063.47;;;12.53;nan
36378;BME280;22402;42.746;23.606;2022-10-23T03:35:41;94061.16;;;12.50;nan
36378;BME280;22402;42.746;23.606;2022-10-23T03:38:07;94067.47;;;12.47;nan
36378;BME280;22402;42.746;23.606;2022-10-23T03:40:32;94070.38;;;12.44;nan
36378;BME280;22402;42.746;23.606;2022-10-23T03:42:57;94054.16;;;12.41;nan
36378;BME280;22402;42.746;23.606;2022-10-23T03:45:23;94060.47;;;12.38;nan
36378;BME280;22402;42.746;23.606;2022-10-23T03:47:48;94061.88;;;12.32;nan
36378;BME280;22402;42.746;23.606;2022-10-23T03:50:14;94056.38;;;12.26;nan
36378;BME280;22402;42.746;23.606;2022-10-23T03:52:39;94069.03;;;12.21;nan
36378;BME280;22402;42.746;23.606;2022-10-23T03:55:05;94072.19;;;12.15;nan
36378;BME280;22402;42.746;23.606;2022-10-23T03:57:31;94071.78;;;12.09;nan
36378;BME280;22402;42.746;23.606;2022-10-23T03:59:56;94066.81;;;12.06;nan
36378;BME280;22402;42.746;23.606;2022-10-23T04:02:22;94069.72;;;12.03;nan
36378;BME280;22402;42.746;23.606;2022-10-23T04:04:47;94069.44;;;11.97;nan
36378;BME280;22402;42.746;23.606;2022-10-23T04:07:13;94067.94;;;11.94;nan
36378;BME280;22402;42.746;23.606;2022-10-23T04:09:38;94070.81;;;11.91;nan
36378;BME280;22402;42.746;23.606;2022-10-23T04:12:04;94077.13;;;11.89;nan
36378;BME280;22402;42.746;23.606;2022-10-23T04:14:29;94068.75;;;11.85;nan
36378;BME280;22402;42.746;23.606;2022-10-23T04:16:55;94081.09;;;11.83;nan
36378;BME280;22402;42.746;23.606;2022-10-23T04:19:20;94083.31;;;11.78;nan
36378;BME280;22402;42.746;23.606;2022-10-23T04:21:46;94079.19;;;11.75;nan
36378;BME280;22402;42.746;23.606;2022-10-23T04:24:11;94080.25;;;11.73;nan
36378;BME280;22402;42.746;23.606;2022-10-23T04:26:37;94080.53;;;11.70;nan
36378;BME280;22402;42.746;23.606;2022-10-23T04:29:02;94080.81;;;11.67;nan
36378;BME280;22402;42.746;23.606;2022-10-23T04:31:28;94083.81;;;11.62;nan
36378;BME280;22402;42.746;23.606;2022-10-23T04:33:53;94086.84;;;11.57;nan
36378;BME280;22402;42.746;23.606;2022-10-23T04:36:18;94078.31;;;11.55;nan
36378;BME280;22402;42.746;23.606;2022-10-23T04:38:44;94082.16;;;11.51;nan
36378;BME280;22402;42.746;23.606;2022-10-23T04:41:09;94070.31;;;11.47;nan
36378;BME280;22402;42.746;23.606;2022-10-23T04:43:35;94080.91;;;11.46;nan
36378;BME280;22402;42.746;23.606;2022-10-23T04:46:00;94070.84;;;11.41;nan
36378;BME280;22402;42.746;23.606;2022-10-23T04:48:26;94077.16;;;11.38;nan
36378;BME280;22402;42.746;23.606;2022-10-23T04:50:59;94079.09;;;11.36;nan
36378;BME280;22402;42.746;23.606;2022-10-23T04:53:26;94070.56;;;11.34;nan
36378;BME280;22402;42.746;23.606;2022-10-23T04:55:53;94078.66;;;11.31;nan
36378;BME280;22402;42.746;23.606;2022-10-23T04:58:20;94084.97;;;11.29;nan
36378;BME280;22402;42.746;23.606;2022-10-23T05:00:46;94078.13;;;11.28;nan
36378;BME280;22402;42.746;23.606;2022-10-23T05:03:12;94084.28;;;11.27;nan
36378;BME280;22402;42.746;23.606;2022-10-23T05:05:38;94098.28;;;11.26;nan
36378;BME280;22402;42.746;23.606;2022-10-23T05:08:03;94103.50;;;11.26;nan
36378;BME280;22402;42.746;23.606;2022-10-23T05:10:29;94097.47;;;11.25;nan
36378;BME280;22402;42.746;23.606;2022-10-23T05:12:54;94095.69;;;11.26;nan
36378;BME280;22402;42.746;23.606;2022-10-23T05:15:20;94091.44;;;11.25;nan
36378;BME280;22402;42.746;23.606;2022-10-23T05:17:47;94110.13;;;11.30;nan
36378;BME280;22402;42.746;23.606;2022-10-23T05:20:17;94109.19;;;11.31;nan
36378;BME280;22402;42.746;23.606;2022-10-23T05:22:45;94103.69;;;11.34;nan
36378;BME280;22402;42.746;23.606;2022-10-23T05:25:11;94119.09;;;11.37;nan
36378;BME280;22402;42.746;23.606;2022-10-23T05:27:37;94108.63;;;11.37;nan
36378;BME280;22402;42.746;23.606;2022-10-23T05:30:03;94114.28;;;11.42;nan
36378;BME280;22402;42.746;23.606;2022-10-23T05:32:30;94127.75;;;11.47;nan
36378;BME280;22402;42.746;23.606;2022-10-23T05:34:57;94127.38;;;11.52;nan
36378;BME280;22402;42.746;23.606;2022-10-23T05:37:23;94138.22;;;11.57;nan
36378;BME280;22402;42.746;23.606;2022-10-23T05:39:49;94137.84;;;11.61;nan
36378;BME280;22402;42.746;23.606;2022-10-23T05:42:15;94130.28;;;11.68;nan
36378;BME280;22402;42.746;23.606;2022-10-23T05:44:41;94129.06;;;11.72;nan
36378;BME280;22402;42.746;23.606;2022-10-23T05:47:06;94131.69;;;11.82;nan
36378;BME280;22402;42.746;23.606;2022-10-23T05:49:32;94131.88;;;11.90;nan
36378;BME280;22402;42.746;23.606;2022-10-23T05:51:58;94131.06;;;11.99;nan
36378;BME280;22402;42.746;23.606;2022-10-23T05:54:23;94139.72;;;12.09;nan
36378;BME280;22402;42.746;23.606;2022-10-23T05:56:48;94145.81;;;12.20;nan
36378;BME280;22402;42.746;23.606;2022-10-23T05:59:14;94143.03;;;12.31;nan
36378;BME280;22402;42.746;23.606;2022-10-23T06:01:39;94148.00;;;12.44;nan
36378;BME280;22402;42.746;23.606;2022-10-23T06:04:05;94142.75;;;12.53;nan
36378;BME280;22402;42.746;23.606;2022-10-23T06:06:30;94146.59;;;12.69;nan
36378;BME280;22402;42.746;23.606;2022-10-23T06:08:56;94141.91;;;12.82;nan
36378;BME280;22402;42.746;23.606;2022-10-23T06:11:22;94158.00;;;12.97;nan
36378;BME280;22402;42.746;23.606;2022-10-23T06:13:47;94163.59;;;13.12;nan
36378;BME280;22402;42.746;23.606;2022-10-23T06:16:15;94153.66;;;13.25;nan
36378;BME280;22402;42.746;23.606;2022-10-23T06:18:40;94163.00;;;13.37;nan
36378;BME280;22402;42.746;23.606;2022-10-23T06:21:06;94162.06;;;13.56;nan
36378;BME280;22402;42.746;23.606;2022-10-23T06:23:33;94155.53;;;13.70;nan
36378;BME280;22402;42.746;23.606;2022-10-23T06:25:59;94155.06;;;13.84;nan
36378;BME280;22402;42.746;23.606;2022-10-23T06:28:25;94148.25;;;13.91;nan
36378;BME280;22402;42.746;23.606;2022-10-23T06:30:50;94165.66;;;14.10;nan
36378;BME280;22402;42.746;23.606;2022-10-23T06:33:16;94167.09;;;14.23;nan
36378;BME280;22402;42.746;23.606;2022-10-23T06:35:41;94167.72;;;14.34;nan
36378;BME280;22402;42.746;23.606;2022-10-23T06:38:06;94167.84;;;14.51;nan
36378;BME280;22402;42.746;23.606;2022-10-23T06:40:32;94172.97;;;14.70;nan
36378;BME280;22402;42.746;23.606;2022-10-23T06:42:57;94177.72;;;14.93;nan
36378;BME280;22402;42.746;23.606;2022-10-23T06:45:22;94169.06;;;15.18;nan
36378;BME280;22402;42.746;23.606;2022-10-23T06:47:51;94173.19;;;15.47;nan
36378;BME280;22402;42.746;23.606;2022-10-23T06:50:17;94172.19;;;15.74;nan
36378;BME280;22402;42.746;23.606;2022-10-23T06:52:43;94177.88;;;16.04;nan
36378;BME280;22402;42.746;23.606;2022-10-23T06:55:09;94186.34;;;16.32;nan
36378;BME280;22402;42.746;23.606;2022-10-23T06:57:34;94183.59;;;16.58;nan
36378;BME280;22402;42.746;23.606;2022-10-23T07:00:00;94190.72;;;16.82;nan
36378;BME280;22402;42.746;23.606;2022-10-23T07:02:25;94193.34;;;17.06;nan
36378;BME280;22402;42.746;23.606;2022-10-23T07:04:51;94188.88;;;17.31;nan
36378;BME280;22402;42.746;23.606;2022-10-23T07:07:16;94190.66;;;17.56;nan
36378;BME280;22402;42.746;23.606;2022-10-23T07:09:41;94197.69;;;17.80;nan
36378;BME280;22402;42.746;23.606;2022-10-23T07:12:07;94202.53;;;18.07;nan
36378;BME280;22402;42.746;23.606;2022-10-23T07:14:32;94208.53;;;18.32;nan
36378;BME280;22402;42.746;23.606;2022-10-23T07:16:58;94213.38;;;18.52;nan
36378;BME280;22402;42.746;23.606;2022-10-23T07:19:23;94221.53;;;18.73;nan
36378;BME280;22402;42.746;23.606;2022-10-23T07:21:49;94219.41;;;18.92;nan
36378;BME280;22402;42.746;23.606;2022-10-23T07:24:15;94220.56;;;19.12;nan
36378;BME280;22402;42.746;23.606;2022-10-23T07:26:40;94221.13;;;19.30;nan
36378;BME280;22402;42.746;23.606;2022-10-23T07:29:06;94219.13;;;19.47;nan
36378;BME280;22402;42.746;23.606;2022-10-23T07:31:32;94224.75;;;19.67;nan
36378;BME280;22402;42.746;23.606;2022-10-23T07:33:57;94226.03;;;19.86;nan
36378;BME280;22402;42.746;23.606;2022-10-23T07:36:23;94221.03;;;20.06;nan
36378;BME280;22402;42.746;23.606;2022-10-23T07:38:50;94224.09;;;20.24;nan
36378;BME280;22402;42.746;23.606;2022-10-23T07:41:16;94214.31;;;20.40;nan
36378;BME280;22402;42.746;23.606;2022-10-23T07:43:41;94208.66;;;20.58;nan
36378;BME280;22402;42.746;23.606;2022-10-23T07:46:06;94218.38;;;20.72;nan
36378;BME280;22402;42.746;23.606;2022-10-23T07:48:32;94205.03;;;20.80;nan
36378;BME280;22402;42.746;23.606;2022-10-23T07:51:03;94208.25;;;20.97;nan
36378;BME280;22402;42.746;23.606;2022-10-23T07:53:29;94212.41;;;21.06;nan
36378;BME280;22402;42.746;23.606;2022-10-23T07:56:00;94213.56;;;21.19;nan
36378;BME280;22402;42.746;23.606;2022-10-23T07:58:26;94220.53;;;21.26;nan
36378;BME280;22402;42.746;23.606;2022-10-23T08:00:57;94211.63;;;21.34;nan
36378;BME280;22402;42.746;23.606;2022-10-23T08:03:31;94204.56;;;21.41;nan
36378;BME280;22402;42.746;23.606;2022-10-23T08:05:58;94204.81;;;21.46;nan
36378;BME280;22402;42.746;23.606;2022-10-23T08:08:24;94212.84;;;21.53;nan
36378;BME280;22402;42.746;23.606;2022-10-23T08:10:52;94206.75;;;21.59;nan
36378;BME280;22402;42.746;23.606;2022-10-23T08:13:18;94202.91;;;21.61;nan
36378;BME280;22402;42.746;23.606;2022-10-23T08:15:43;94207.59;;;21.59;nan
36378;BME280;22402;42.746;23.606;2022-10-23T08:18:09;94210.00;;;21.54;nan
36378;BME280;22402;42.746;23.606;2022-10-23T08:20:42;94190.53;;;21.47;nan
36378;BME280;22402;42.746;23.606;2022-10-23T08:23:08;94196.22;;;21.44;nan
36378;BME280;22402;42.746;23.606;2022-10-23T08:25:34;94196.00;;;21.39;nan
36378;BME280;22402;42.746;23.606;2022-10-23T08:27:59;94197.06;;;21.45;nan
36378;BME280;22402;42.746;23.606;2022-10-23T08:30:25;94199.09;;;21.43;nan
36378;BME280;22402;42.746;23.606;2022-10-23T08:32:50;94188.78;;;21.33;nan
36378;BME280;22402;42.746;23.606;2022-10-23T08:35:16;94189.91;;;21.24;nan
36378;BME280;22402;42.746;23.606;2022-10-23T08:37:41;94195.56;;;21.14;nan
36378;BME280;22402;42.746;23.606;2022-10-23T08:40:08;94190.19;;;21.07;nan
36378;BME280;22402;42.746;23.606;2022-10-23T08:42:38;94190.19;;;21.07;nan
36378;BME280;22402;42.746;23.606;2022-10-23T08:45:20;94193.22;;;21.04;nan
36378;BME280;22402;42.746;23.606;2022-10-23T08:47:53;94192.28;;;21.12;nan
36378;BME280;22402;42.746;23.606;2022-10-23T08:50:26;94195.13;;;21.10;nan
36378;BME280;22402;42.746;23.606;2022-10-23T08:56:10;94189.44;;;21.13;nan
36378;BME280;22402;42.746;23.606;2022-10-23T08:58:44;94194.34;;;21.16;nan
36378;BME280;22402;42.746;23.606;2022-10-23T09:04:03;94198.88;;;21.23;nan
36378;BME280;22402;42.746;23.606;2022-10-23T09:06:38;94201.16;;;21.26;nan
36378;BME280;22402;42.746;23.606;2022-10-23T09:12:22;94194.09;;;21.33;nan
36378;BME280;22402;42.746;23.606;2022-10-23T09:17:34;94196.88;;;21.46;nan
36378;BME280;22402;42.746;23.606;2022-10-23T09:20:19;94192.03;;;21.56;nan
36378;BME280;22402;42.746;23.606;2022-10-23T09:22:48;94190.66;;;21.60;nan
36378;BME280;22402;42.746;23.606;2022-10-23T09:25:33;94183.38;;;21.69;nan
36378;BME280;22402;42.746;23.606;2022-10-23T09:28:00;94188.28;;;21.72;nan
36378;BME280;22402;42.746;23.606;2022-10-23T09:30:36;94182.97;;;21.72;nan
36378;BME280;22402;42.746;23.606;2022-10-23T09:36:06;94185.09;;;21.83;nan
36378;BME280;22402;42.746;23.606;2022-10-23T09:43:42;94179.09;;;22.10;nan
36378;BME280;22402;42.746;23.606;2022-10-23T09:46:08;94179.97;;;22.17;nan
36378;BME280;22402;42.746;23.606;2022-10-23T09:48:34;94176.31;;;22.24;nan
36378;BME280;22402;42.746;23.606;2022-10-23T09:51:13;94173.88;;;22.23;nan
36378;BME280;22402;42.746;23.606;2022-10-23T09:56:32;94172.22;;;22.22;nan
36378;BME280;22402;42.746;23.606;2022-10-23T09:59:01;94174.72;;;22.30;nan
36378;BME280;22402;42.746;23.606;2022-10-23T10:01:32;94172.47;;;22.27;nan
36378;BME280;22402;42.746;23.606;2022-10-23T10:03:58;94183.28;;;22.25;nan
36378;BME280;22402;42.746;23.606;2022-10-23T10:06:29;94177.97;;;22.25;nan
36378;BME280;22402;42.746;23.606;2022-10-23T10:08:59;94176.97;;;22.26;nan
36378;BME280;22402;42.746;23.606;2022-10-23T10:16:57;94162.50;;;22.42;nan
36378;BME280;22402;42.746;23.606;2022-10-23T10:24:53;94159.25;;;22.47;nan
36378;BME280;22402;42.746;23.606;2022-10-23T10:30:24;94152.09;;;22.47;nan
36378;BME280;22402;42.746;23.606;2022-10-23T10:35:46;94154.75;;;22.47;nan
36378;BME280;22402;42.746;23.606;2022-10-23T10:43:46;94129.41;;;22.45;nan
36378;BME280;22402;42.746;23.606;2022-10-23T10:49:34;94132.47;;;22.42;nan
36378;BME280;22402;42.746;23.606;2022-10-23T10:57:42;94126.97;;;22.50;nan
36378;BME280;22402;42.746;23.606;2022-10-23T11:00:15;94132.06;;;22.51;nan
36378;BME280;22402;42.746;23.606;2022-10-23T11:03:37;94132.28;;;22.57;nan
36378;BME280;22402;42.746;23.606;2022-10-23T11:06:05;94131.91;;;22.60;nan
36378;BME280;22402;42.746;23.606;2022-10-23T11:08:37;94133.56;;;22.61;nan
36378;BME280;22402;42.746;23.606;2022-10-23T11:11:09;94125.19;;;22.64;nan
36378;BME280;22402;42.746;23.606;2022-10-23T11:13:37;94118.63;;;22.66;nan
36378;BME280;22402;42.746;23.606;2022-10-23T11:18:34;94101.03;;;22.72;nan
36378;BME280;22402;42.746;23.606;2022-10-23T11:23:50;94104.53;;;22.86;nan
36378;BME280;22402;42.746;23.606;2022-10-23T11:32:00;94086.97;;;22.91;nan
36378;BME280;22402;42.746;23.606;2022-10-23T11:34:32;94088.59;;;22.92;nan
36378;BME280;22402;42.746;23.606;2022-10-23T11:37:03;94086.97;;;22.91;nan
36378;BME280;22402;42.746;23.606;2022-10-23T11:39:32;94077.56;;;22.89;nan
36378;BME280;22402;42.746;23.606;2022-10-23T11:42:11;94085.13;;;22.85;nan
36378;BME280;22402;42.746;23.606;2022-10-23T11:44:48;94083.06;;;22.81;nan
36378;BME280;22402;42.746;23.606;2022-10-23T11:52:37;94069.78;;;22.74;nan
36378;BME280;22402;42.746;23.606;2022-10-23T11:55:16;94073.47;;;22.73;nan
36378;BME280;22402;42.746;23.606;2022-10-23T11:57:44;94074.69;;;22.77;nan
36378;BME280;22402;42.746;23.606;2022-10-23T12:00:20;94065.09;;;22.76;nan
36378;BME280;22402;42.746;23.606;2022-10-23T12:02:50;94060.34;;;22.78;nan
36378;BME280;22402;42.746;23.606;2022-10-23T12:05:31;94062.41;;;22.83;nan
36378;BME280;22402;42.746;23.606;2022-10-23T12:07:59;94060.34;;;22.78;nan
36378;BME280;22402;42.746;23.606;2022-10-23T12:10:30;94064.47;;;22.74;nan
36378;BME280;22402;42.746;23.606;2022-10-23T12:12:59;94073.03;;;22.69;nan
36378;BME280;22402;42.746;23.606;2022-10-23T12:15:27;94063.03;;;22.65;nan
36378;BME280;22402;42.746;23.606;2022-10-23T12:18:09;94069.38;;;22.64;nan
36378;BME280;22402;42.746;23.606;2022-10-23T12:20:46;94069.38;;;22.64;nan
36378;BME280;22402;42.746;23.606;2022-10-23T12:26:16;94065.69;;;22.58;nan
36378;BME280;22402;42.746;23.606;2022-10-23T12:31:53;94063.84;;;22.52;nan
36378;BME280;22402;42.746;23.606;2022-10-23T12:34:44;94063.84;;;22.52;nan
36378;BME280;22402;42.746;23.606;2022-10-23T12:39:54;94058.75;;;22.64;nan
36378;BME280;22402;42.746;23.606;2022-10-23T12:42:22;94062.84;;;22.73;nan
36378;BME280;22402;42.746;23.606;2022-10-23T12:45:17;94073.88;;;22.83;nan
36378;BME280;22402;42.746;23.606;2022-10-23T12:47:45;94056.47;;;22.87;nan
36378;BME280;22402;42.746;23.606;2022-10-23T12:50:26;94076.34;;;22.98;nan
36378;BME280;22402;42.746;23.606;2022-10-23T12:53:00;94065.13;;;23.03;nan
36378;BME280;22402;42.746;23.606;2022-10-23T12:55:28;94066.94;;;23.09;nan
36378;BME280;22402;42.746;23.606;2022-10-23T12:57:54;94076.75;;;23.15;nan
36378;BME280;22402;42.746;23.606;2022-10-23T13:00:22;94071.03;;;23.18;nan
36378;BME280;22402;42.746;23.606;2022-10-23T13:03:01;94069.81;;;23.20;nan
36378;BME280;22402;42.746;23.606;2022-10-23T13:05:28;94068.56;;;23.23;nan
36378;BME280;22402;42.746;23.606;2022-10-23T13:07:54;94070.19;;;23.24;nan
36378;BME280;22402;42.746;23.606;2022-10-23T13:10:22;94079.22;;;23.23;nan
36378;BME280;22402;42.746;23.606;2022-10-23T13:12:57;94075.13;;;23.20;nan
36378;BME280;22402;42.746;23.606;2022-10-23T13:15:24;94071.63;;;23.20;nan
36378;BME280;22402;42.746;23.606;2022-10-23T13:20:21;94079.63;;;23.13;nan
36378;BME280;22402;42.746;23.606;2022-10-23T13:22:56;94085.75;;;23.07;nan
36378;BME280;22402;42.746;23.606;2022-10-23T13:30:38;94080.81;;;22.84;nan
36378;BME280;22402;42.746;23.606;2022-10-23T13:35:59;94079.19;;;22.77;nan
36378;BME280;22402;42.746;23.606;2022-10-23T13:38:36;94078.16;;;22.71;nan
36378;BME280;22402;42.746;23.606;2022-10-23T13:41:03;94083.66;;;22.63;nan
36378;BME280;22402;42.746;23.606;2022-10-23T13:43:30;94086.13;;;22.58;nan
36378;BME280;22402;42.746;23.606;2022-10-23T13:45:58;63716.94;;;-144.61;100.00
36378;BME280;22402;42.746;23.606;2022-10-23T13:48:23;63716.94;;;-144.61;100.00
36378;BME280;22402;42.746;23.606;2022-10-23T13:50:49;63716.94;;;-144.61;100.00
36378;BME280;22402;42.746;23.606;2022-10-23T13:53:14;63716.94;;;-144.61;100.00
36378;BME280;22402;42.746;23.606;2022-10-23T13:55:42;63716.94;;;-144.61;100.00
36378;BME280;22402;42.746;23.606;2022-10-23T13:58:09;63716.94;;;-144.61;100.00
36378;BME280;22402;42.746;23.606;2022-10-23T14:00:36;63716.94;;;-144.61;100.00
36378;BME280;22402;42.746;23.606;2022-10-23T14:03:03;63716.94;;;-144.61;100.00
36378;BME280;22402;42.746;23.606;2022-10-23T14:05:29;63716.94;;;-144.61;100.00
36378;BME280;22402;42.746;23.606;2022-10-23T14:07:54;63716.94;;;-144.61;100.00
36378;BME280;22402;42.746;23.606;2022-10-23T14:10:19;63716.94;;;-144.61;100.00
36378;BME280;22402;42.746;23.606;2022-10-23T14:12:45;63716.94;;;-144.61;100.00
36378;BME280;22402;42.746;23.606;2022-10-23T14:15:10;63716.94;;;-144.61;100.00
36378;BME280;22402;42.746;23.606;2022-10-23T14:17:36;63716.94;;;-144.61;100.00
36378;BME280;22402;42.746;23.606;2022-10-23T14:20:03;63716.94;;;-144.61;100.00
36378;BME280;22402;42.746;23.606;2022-10-23T14:22:29;63716.94;;;-144.61;100.00
36378;BME280;22402;42.746;23.606;2022-10-23T14:24:54;63716.94;;;-144.61;100.00
36378;BME280;22402;42.746;23.606;2022-10-23T14:27:19;63716.94;;;-144.61;100.00
36378;BME280;22402;42.746;23.606;2022-10-23T14:29:45;63716.94;;;-144.61;100.00
36378;BME280;22402;42.746;23.606;2022-10-23T14:32:10;63716.94;;;-144.61;100.00
36378;BME280;22402;42.746;23.606;2022-10-23T14:34:39;63716.94;;;-144.61;100.00
36378;BME280;22402;42.746;23.606;2022-10-23T14:37:05;63716.94;;;-144.61;100.00
36378;BME280;22402;42.746;23.606;2022-10-23T14:39:30;63716.94;;;-144.61;100.00
36378;BME280;22402;42.746;23.606;2022-10-23T14:41:56;63716.94;;;-144.61;100.00
36378;BME280;22402;42.746;23.606;2022-10-23T14:44:21;63716.94;;;-144.61;100.00
36378;BME280;22402;42.746;23.606;2022-10-23T14:46:46;63716.94;;;-144.61;100.00
36378;BME280;22402;42.746;23.606;2022-10-23T14:49:12;63716.94;;;-144.61;100.00
36378;BME280;22402;42.746;23.606;2022-10-23T14:51:37;63716.94;;;-144.61;100.00
36378;BME280;22402;42.746;23.606;2022-10-23T14:54:05;63716.94;;;-144.61;100.00
36378;BME280;22402;42.746;23.606;2022-10-23T14:56:33;63716.94;;;-144.61;100.00
36378;BME280;22402;42.746;23.606;2022-10-23T14:59:02;63716.94;;;-144.61;100.00
36378;BME280;22402;42.746;23.606;2022-10-23T15:01:33;63716.94;;;-144.61;100.00
36378;BME280;22402;42.746;23.606;2022-10-23T15:03:59;63716.94;;;-144.61;100.00
36378;BME280;22402;42.746;23.606;2022-10-23T15:06:25;63716.94;;;-144.61;100.00
36378;BME280;22402;42.746;23.606;2022-10-23T15:08:51;63716.94;;;-144.61;100.00
36378;BME280;22402;42.746;23.606;2022-10-23T15:11:17;63716.94;;;-144.61;100.00
36378;BME280;22402;42.746;23.606;2022-10-23T15:13:42;63716.94;;;-144.61;100.00